• Join FlightAware (Why Join?)
  • Login
  • US Flag 
08:34AM EDT


 

Airport Tracker/Info


-or-


 

Live Flight TrackerFlight Track Log ✈ JIA2497 ✈ 21-Feb-2012 ✈ KFLO - KCLT

Flight Track Log - Related Links

Times and Time Zones

All times are in EST time to prevent confusion due to time zone crossing. See the JIA2497 flight status page for this flight to view local times or setup timezone preferences in your user account.

Time Position Orientation Groundspeed Altitude Reporting Facility
EST Latitude Longitude Course Direction KTS MPH feet Rate Location/Type
05:21AM 34.2102 -79.6630 309° West  Level FlightAware Approximate
05:28AM 34.2622 -79.7394 310° West 302 348 5,900  Level Jacksonville Center
05:29AM 34.3100 -79.8081 312° West 281 323 8,800 2,940 Climbing Jacksonville Center
05:30AM 34.3617 -79.8767 313° West 275 316 11,800 1,500 Climbing Jacksonville Center
05:31AM 34.4153 -79.9453 310° West 275 316 11,900 -240 Climbing Jacksonville Center
05:32AM 34.4672 -80.0192 314° West 282 325 11,400 -540 Descending Jacksonville Center
05:33AM 34.5250 -80.0928 309° West 287 330 10,900 -180 Descending Jacksonville Center
05:34AM 34.6094 -80.2203 313° West 286 329 11,000  Climbing Atlanta Center
05:35AM 34.6617 -80.2886 314° West 279 321 11,000  Level Atlanta Center
05:36AM 34.7136 -80.3544 314° West 275 316 11,000  Level Atlanta Center
05:37AM 34.7678 -80.4231 314° West 275 316 11,000  Level Atlanta Center
05:38AM 34.8178 -80.4867 315° West 276 318 11,000  Level Atlanta Center
05:39AM 34.8694 -80.5503 316° Northwest 278 320 11,000 -480 Level Atlanta Center
05:40AM 34.9236 -80.6139 313° West 282 325 10,100 -1,080 Descending Atlanta Center
05:41AM 34.9756 -80.6825 314° West 280 322 9,000 -600 Descending Atlanta Center
05:42AM 35.0317 -80.7539 326° Northwest 283 326 9,000  Level Atlanta Center
05:43AM 35.1042 -80.8144 357° North 300 345 9,000 -240 Level Atlanta Center
05:44AM 35.1836 -80.8192 41° Northeast 277 319 8,500 -900 Descending Atlanta Center
05:45AM 35.2383 -80.7611 33° Northeast 266 306 7,200 -1,620 Descending Atlanta Center
05:46AM 35.2917 -80.7181 299° West 252 290 5,300 -1,560 Descending Atlanta Center
05:47AM 35.3203 -80.7806 241° Southwest 195 224 4,000 -1,080 Descending Atlanta Center
05:49AM 35.2967 -80.8325 241° Southwest 178 205 3,000 -1,020 Descending Atlanta Center